Wolcott, Connecticut
Current Conditions -  °F | °C
As of 7:53 PM on Wednesday 17 Dec 2014 (Local Time) from KMMK Reporting Station
Overcast Overcast  
Wind Chill: 39°   Ceiling: 6500
Heat Index: 43°   Visibility: 10mi
Dew Point: 35°   Wind: 7mph
Humidity: 74%   Direction: 300°WNW
Pressure: 29.83"   Gusts: NA
Location:  41.6°N, 72.98°W
Report Text: KMMK 180053Z AUTO 30006KT 10SM FEW045 BKN065 OVC095 06/02 A2983 RMK AO2 SLP101 T00610017 TSNO
Loading
Personal Weather Stations






























Interactive Weather Map New forecast layout! Learn more

10-Day Weather Forecast

Advertisements
Track Severe Weather on mobile